Terminal Aerodrome Forecast
Issued by NWS

Home | Current Version | Previous Version | Text Only | Print | Product List | Glossary On
Versions: 1 2 3 4 5 6 7 8 9 10 11 12 13 14 15 16
000
FTUS46 KMTR 101726
TAFSNS
TAF
KSNS 101726Z 1018/1118 13007KT P6SM VCSH OVC020
     FM102000 15010KT 4SM -RA BR BKN010 OVC015
     FM110500 13004KT 6SM -SHRA BR SCT008 BKN015 OVC030
     FM110900 VRB02KT 6SM BR FEW009 BKN020 OVC040
     FM111500 12008KT P6SM BKN200=

USA.gov is the U.S. government's official web portal to all federal, state and local government web resources and services.